Time;durP1;ratioP1;P1;durP2;ratioP2;P2;SDS_P1;SDS_P2;PMS_P1;PMS_P2;Temp;Humidity;BMP_temperature;BMP_pressure;BME280_temperature;BME280_humidity;BME280_pressure;Samples;Min_cycle;Max_cycle;Signal;HPM_P1;HPM_P2
2021/06/30 00:01:39;;;;;;;21.73;12.82;;;13.60;99.90;;;;;;4953836;28;20038;-94
2021/06/30 00:04:05;;;;;;;25.35;13.32;;;13.50;99.90;;;;;;4965412;28;20089;-93
2021/06/30 00:06:32;;;;;;;22.83;14.38;;;13.50;99.90;;;;;;4965963;28;20038;-93
2021/06/30 00:08:59;;;;;;;27.88;14.25;;;13.40;99.90;;;;;;4980200;28;20065;-93
2021/06/30 00:11:26;;;;;;;29.02;14.55;;;13.40;99.90;;;;;;4966577;28;20023;-94
2021/06/30 00:13:52;;;;;;;25.00;13.77;;;13.40;99.90;;;;;;4982574;28;20054;-95
2021/06/30 00:16:19;;;;;;;28.77;13.90;;;13.40;99.90;;;;;;4969579;28;20023;-94
2021/06/30 00:18:45;;;;;;;26.35;14.60;;;13.40;99.90;;;;;;4954685;28;20047;-94
2021/06/30 00:21:11;;;;;;;26.27;15.02;;;13.40;99.90;;;;;;4969011;28;20031;-94
2021/06/30 00:23:37;;;;;;;28.00;14.52;;;13.40;99.90;;;;;;4956185;28;20030;-95
2021/06/30 00:26:03;;;;;;;24.88;14.45;;;13.40;99.90;;;;;;4973019;28;20039;-93
2021/06/30 00:28:30;;;;;;;25.27;15.02;;;13.40;99.90;;;;;;4988931;28;20038;-94
2021/06/30 00:30:58;;;;;;;26.00;14.65;;;13.40;99.90;;;;;;4972023;28;20027;-94
2021/06/30 00:33:24;;;;;;;19.88;13.63;;;13.30;99.90;;;;;;4988237;28;20501;-93
2021/06/30 00:35:50;;;;;;;21.75;13.60;;;13.30;99.90;;;;;;4968049;28;20039;-95
2021/06/30 00:38:17;;;;;;;29.52;13.73;;;13.30;99.90;;;;;;4986956;28;20026;-94
2021/06/30 00:40:45;;;;;;;23.73;14.93;;;13.30;99.90;;;;;;4984308;28;20106;-95
2021/06/30 00:43:11;;;;;;;32.58;14.25;;;13.40;99.90;;;;;;4967809;28;20027;-94
2021/06/30 00:45:38;;;;;;;32.63;15.20;;;13.40;99.90;;;;;;4982315;28;20098;-95
2021/06/30 00:48:04;;;;;;;31.00;14.18;;;13.40;99.90;;;;;;4967895;28;20035;-95
2021/06/30 00:50:30;;;;;;;31.13;15.60;;;13.40;99.90;;;;;;4982139;28;20041;-95
2021/06/30 00:52:56;;;;;;;29.88;15.02;;;13.40;99.90;;;;;;4964730;28;20102;-95
2021/06/30 00:55:23;;;;;;;27.38;13.95;;;13.40;99.90;;;;;;4983033;28;20118;-96
2021/06/30 00:57:49;;;;;;;25.23;13.52;;;13.40;99.90;;;;;;4966518;28;20243;-94
2021/06/30 01:00:17;;;;;;;28.05;14.15;;;13.40;99.90;;;;;;4963476;28;20515;-94
2021/06/30 01:02:43;;;;;;;25.08;13.77;;;13.40;99.90;;;;;;4962668;28;20508;-95
2021/06/30 01:05:10;;;;;;;25.70;13.90;;;13.30;99.90;;;;;;4962382;28;20027;-94
2021/06/30 01:07:36;;;;;;;25.65;14.50;;;13.30;99.90;;;;;;4983692;28;20059;-94
2021/06/30 01:10:03;;;;;;;25.35;12.93;;;13.30;99.90;;;;;;4986451;28;20034;-94
2021/06/30 01:12:29;;;;;;;27.23;13.60;;;13.20;99.90;;;;;;4994242;28;20043;-94
2021/06/30 01:14:56;;;;;;;27.20;13.45;;;13.20;99.90;;;;;;4996010;28;20023;-94
2021/06/30 01:17:21;;;;;;;32.22;13.15;;;13.20;99.90;;;;;;4991975;28;20027;-95
2021/06/30 01:19:47;;;;;;;29.73;13.63;;;13.10;99.90;;;;;;4974335;28;20078;-95
2021/06/30 01:22:13;;;;;;;27.00;13.43;;;13.10;99.90;;;;;;4968790;28;20019;-96
2021/06/30 01:24:39;;;;;;;26.33;14.80;;;13.00;99.90;;;;;;4969413;28;20499;-95
2021/06/30 01:27:05;;;;;;;24.55;13.20;;;13.00;99.90;;;;;;4988267;28;20094;-94
2021/06/30 01:29:32;;;;;;;24.98;14.15;;;13.00;99.90;;;;;;4987447;28;20027;-93
2021/06/30 01:31:58;;;;;;;24.33;13.35;;;13.00;99.90;;;;;;4971146;28;20038;-94
2021/06/30 01:34:24;;;;;;;22.55;13.77;;;13.00;99.90;;;;;;4988119;28;20026;-95
2021/06/30 01:36:52;;;;;;;26.30;13.85;;;12.90;99.90;;;;;;4986104;28;20026;-94
2021/06/30 01:39:20;;;;;;;27.08;13.73;;;12.90;99.90;;;;;;4983143;28;20035;-94
2021/06/30 01:41:49;;;;;;;26.30;12.93;;;12.90;99.90;;;;;;4980954;28;20023;-94
2021/06/30 01:44:15;;;;;;;22.23;12.55;;;12.90;99.90;;;;;;4981937;28;20039;-94
2021/06/30 01:46:42;;;;;;;24.90;14.13;;;12.90;99.90;;;;;;4965865;28;20026;-93
2021/06/30 01:49:08;;;;;;;23.30;13.85;;;12.90;99.90;;;;;;4978795;28;20035;-94
2021/06/30 01:51:34;;;;;;;22.90;12.63;;;12.90;99.90;;;;;;4961857;28;20029;-93
2021/06/30 01:54:03;;;;;;;23.10;12.70;;;12.90;99.90;;;;;;4979308;28;20074;-94
2021/06/30 01:56:30;;;;;;;23.10;12.93;;;12.90;99.90;;;;;;4977246;28;20030;-94
2021/06/30 01:59:05;;;;;;;24.10;13.32;;;12.90;99.90;;;;;;4962150;28;20027;-94
2021/06/30 02:01:30;;;;;;;23.30;12.60;;;12.80;99.90;;;;;;4978703;28;20039;-93
2021/06/30 02:03:58;;;;;;;25.23;12.73;;;12.80;99.90;;;;;;4964705;28;20054;-92
2021/06/30 02:06:28;;;;;;;27.75;12.93;;;12.80;99.90;;;;;;4968250;28;20117;-93
2021/06/30 02:08:58;;;;;;;21.20;12.75;;;12.80;99.90;;;;;;4982605;28;20046;-93
2021/06/30 02:11:25;;;;;;;28.20;12.85;;;12.80;99.90;;;;;;4983853;28;20022;-95
2021/06/30 02:13:51;;;;;;;21.77;12.70;;;12.80;99.90;;;;;;4967836;28;20072;-93
2021/06/30 02:16:20;;;;;;;21.00;12.38;;;12.80;99.90;;;;;;4982996;28;20018;-94
2021/06/30 02:18:46;;;;;;;27.23;13.25;;;12.80;99.90;;;;;;4982184;28;20061;-94
2021/06/30 02:21:12;;;;;;;25.10;13.60;;;12.80;99.90;;;;;;4966529;28;20061;-94
2021/06/30 02:23:38;;;;;;;26.42;13.00;;;12.80;99.90;;;;;;4970914;28;20504;-94
2021/06/30 02:26:06;;;;;;;25.08;13.60;;;12.80;99.90;;;;;;4987589;28;20023;-94
2021/06/30 02:28:34;;;;;;;26.40;13.80;;;12.80;99.90;;;;;;4986301;28;20026;-93
2021/06/30 02:31:01;;;;;;;20.70;10.48;;;12.90;99.90;;;;;;4985566;28;20121;-93
2021/06/30 02:33:28;;;;;;;26.30;12.93;;;12.80;99.90;;;;;;4971763;28;20504;-94
2021/06/30 02:35:55;;;;;;;24.17;12.82;;;12.80;99.90;;;;;;4985269;28;20034;-94
2021/06/30 02:38:21;;;;;;;24.73;13.85;;;12.80;99.90;;;;;;4985609;28;20035;-95
2021/06/30 02:40:48;;;;;;;22.38;12.52;;;12.80;99.90;;;;;;4985003;28;20539;-93
2021/06/30 02:43:16;;;;;;;25.05;13.30;;;12.70;99.90;;;;;;4984007;28;20027;-94
2021/06/30 02:45:42;;;;;;;25.20;12.95;;;12.70;99.90;;;;;;4984595;28;20042;-94
2021/06/30 02:48:07;;;;;;;25.58;13.73;;;12.70;99.90;;;;;;4968707;28;20519;-94
2021/06/30 02:50:35;;;;;;;25.00;14.02;;;12.60;99.90;;;;;;4968611;28;20132;-94
2021/06/30 02:53:01;;;;;;;29.88;14.73;;;12.60;99.90;;;;;;4968039;28;20038;-93
2021/06/30 02:55:28;;;;;;;26.27;14.20;;;12.60;99.90;;;;;;4984699;28;20116;-92
2021/06/30 02:57:55;;;;;;;24.08;12.98;;;12.60;99.90;;;;;;4984258;28;20039;-94
2021/06/30 03:00:26;;;;;;;22.88;13.45;;;12.50;99.90;;;;;;4983657;28;20517;-94
2021/06/30 03:02:53;;;;;;;20.20;11.88;;;12.60;99.90;;;;;;4983838;28;20034;-94
2021/06/30 03:05:19;;;;;;;26.70;13.32;;;12.60;99.90;;;;;;4968818;28;20039;-93
2021/06/30 03:07:45;;;;;;;22.42;13.57;;;12.60;99.90;;;;;;4985631;28;20041;-94
2021/06/30 03:10:13;;;;;;;25.17;13.50;;;12.60;99.90;;;;;;4982658;28;20023;-94
2021/06/30 03:12:40;;;;;;;18.77;12.00;;;12.60;99.90;;;;;;4982642;28;20144;-95
2021/06/30 03:15:08;;;;;;;21.80;13.05;;;12.60;99.90;;;;;;4951593;28;20031;-93
2021/06/30 03:17:35;;;;;;;20.50;12.88;;;12.70;99.90;;;;;;4983948;28;20031;-94
2021/06/30 03:20:07;;;;;;;24.42;13.52;;;12.70;99.90;;;;;;4981948;28;20044;-94
2021/06/30 03:22:34;;;;;;;25.15;14.43;;;12.70;99.90;;;;;;4981095;28;20026;-93
2021/06/30 03:25:00;;;;;;;23.25;13.35;;;12.70;99.90;;;;;;4981793;28;20150;-95
2021/06/30 03:27:27;;;;;;;23.88;13.15;;;12.70;99.90;;;;;;4965007;28;20050;-93
2021/06/30 03:29:53;;;;;;;29.75;13.27;;;12.70;99.90;;;;;;4980979;28;20444;-93
2021/06/30 03:32:19;;;;;;;24.70;14.00;;;12.70;99.90;;;;;;4964582;28;20042;-92
2021/06/30 03:34:45;;;;;;;27.63;15.02;;;12.70;99.90;;;;;;4965456;28;20041;-93
2021/06/30 03:37:13;;;;;;;28.38;15.52;;;12.80;99.90;;;;;;4987334;28;20037;-95
2021/06/30 03:39:39;;;;;;;28.98;15.40;;;12.80;99.90;;;;;;4979763;28;20094;-94
2021/06/30 03:42:05;;;;;;;29.98;15.68;;;12.80;99.90;;;;;;4981262;28;20061;-94
2021/06/30 03:44:31;;;;;;;32.58;16.42;;;12.80;99.90;;;;;;4983303;28;20033;-94
2021/06/30 03:46:57;;;;;;;27.00;15.40;;;12.80;99.90;;;;;;4980551;28;20392;-94
2021/06/30 03:49:23;;;;;;;29.30;16.23;;;12.80;99.90;;;;;;4982326;28;20037;-94
2021/06/30 03:51:50;;;;;;;26.80;14.32;;;12.80;99.90;;;;;;4983624;28;20074;-94
2021/06/30 03:54:18;;;;;;;24.00;14.57;;;12.80;99.90;;;;;;4982052;28;20034;-95
2021/06/30 03:56:44;;;;;;;31.67;14.68;;;12.90;99.90;;;;;;4966640;28;20064;-95
2021/06/30 03:59:10;;;;;;;24.67;14.13;;;12.90;99.90;;;;;;4967117;28;20138;-94
2021/06/30 04:01:36;;;;;;;27.50;14.93;;;12.90;99.90;;;;;;4983682;28;20035;-95
2021/06/30 04:04:06;;;;;;;25.75;12.60;;;12.90;99.90;;;;;;4984110;28;20098;-95
2021/06/30 04:06:33;;;;;;;24.70;13.40;;;12.90;99.90;;;;;;4969197;28;20047;-94
2021/06/30 04:09:00;;;;;;;23.77;13.15;;;12.90;99.90;;;;;;4983072;28;20046;-95
2021/06/30 04:11:26;;;;;;;21.95;13.20;;;12.90;99.90;;;;;;4982091;28;20026;-94
2021/06/30 04:13:53;;;;;;;26.20;13.25;;;12.80;99.90;;;;;;4966826;28;20109;-94
2021/06/30 04:16:19;;;;;;;22.15;12.43;;;12.80;99.90;;;;;;4970593;28;20027;-95
2021/06/30 04:18:45;;;;;;;23.70;12.50;;;12.80;99.90;;;;;;4972841;28;20046;-94
2021/06/30 04:21:11;;;;;;;22.95;11.98;;;12.80;99.90;;;;;;4988850;28;20030;-94
2021/06/30 04:23:39;;;;;;;21.33;12.10;;;12.80;99.90;;;;;;4987835;28;20050;-94
2021/06/30 04:26:08;;;;;;;24.00;12.50;;;12.80;99.90;;;;;;4987436;28;20023;-95
2021/06/30 04:28:34;;;;;;;21.10;12.07;;;12.80;99.90;;;;;;4971580;28;20034;-95
2021/06/30 04:31:02;;;;;;;20.55;11.93;;;12.80;99.90;;;;;;4985151;28;20050;-95
2021/06/30 04:33:31;;;;;;;17.65;9.68;;;12.80;99.90;;;;;;4986684;28;20058;-93
2021/06/30 04:35:58;;;;;;;19.85;11.65;;;12.80;99.90;;;;;;4983992;28;20066;-94
2021/06/30 04:38:26;;;;;;;20.10;12.20;;;12.80;99.90;;;;;;4980741;28;20034;-95
2021/06/30 04:40:54;;;;;;;20.98;12.30;;;12.70;99.90;;;;;;4985794;28;20047;-95
2021/06/30 04:43:21;;;;;;;18.50;11.23;;;12.80;99.90;;;;;;4986128;28;20023;-93
2021/06/30 04:45:47;;;;;;;19.58;11.43;;;12.80;99.90;;;;;;4971627;28;20023;-93
2021/06/30 04:48:14;;;;;;;19.70;11.68;;;12.70;99.90;;;;;;4973274;28;20034;-93
2021/06/30 04:50:41;;;;;;;22.98;12.45;;;12.80;99.90;;;;;;4976163;28;20023;-93
2021/06/30 04:53:08;;;;;;;22.73;12.45;;;12.80;99.90;;;;;;4979864;28;20039;-94
2021/06/30 04:55:34;;;;;;;23.70;12.57;;;12.80;99.90;;;;;;4977577;28;20495;-93
2021/06/30 04:58:00;;;;;;;19.58;11.85;;;12.80;99.90;;;;;;4991690;28;20026;-93
2021/06/30 05:00:26;;;;;;;18.50;10.88;;;12.70;99.90;;;;;;4995617;28;20054;-94
2021/06/30 05:02:54;;;;;;;20.52;11.45;;;12.70;99.90;;;;;;4995344;28;20062;-93
2021/06/30 05:05:20;;;;;;;18.50;10.90;;;12.80;99.90;;;;;;4992145;28;20023;-94
2021/06/30 05:07:46;;;;;;;17.00;10.48;;;12.80;99.90;;;;;;4986910;28;20038;-93
2021/06/30 05:10:12;;;;;;;19.27;11.35;;;12.80;99.90;;;;;;4982268;28;20073;-93
2021/06/30 05:12:37;;;;;;;18.02;11.25;;;12.80;99.90;;;;;;4982104;28;20059;-92
2021/06/30 05:15:04;;;;;;;17.38;10.88;;;12.80;99.90;;;;;;4968098;28;20038;-92
2021/06/30 05:17:31;;;;;;;18.33;11.00;;;12.80;99.90;;;;;;4982895;28;20031;-92
2021/06/30 05:19:57;;;;;;;17.70;11.20;;;12.80;99.90;;;;;;4984524;28;20038;-93
2021/06/30 05:22:22;;;;;;;18.88;11.52;;;12.90;99.90;;;;;;4982857;28;20591;-93
2021/06/30 05:24:48;;;;;;;21.73;11.05;;;12.90;99.90;;;;;;4986553;28;20110;-94
2021/06/30 05:27:14;;;;;;;16.65;9.85;;;12.90;99.90;;;;;;4970334;28;20023;-94
2021/06/30 05:29:40;;;;;;;15.60;9.65;;;13.00;99.90;;;;;;4987846;28;20030;-94
2021/06/30 05:32:08;;;;;;;16.33;9.80;;;13.20;99.90;;;;;;5000852;28;20166;-95
2021/06/30 05:34:33;;;;;;;18.83;10.38;;;13.30;99.90;;;;;;4992661;28;20035;-94
2021/06/30 05:36:59;;;;;;;18.20;10.48;;;13.30;99.90;;;;;;4992564;28;20082;-95
2021/06/30 05:39:25;;;;;;;17.65;10.80;;;13.40;99.90;;;;;;4992872;28;20026;-94
2021/06/30 05:41:51;;;;;;;18.08;10.80;;;13.40;99.90;;;;;;4990102;28;20085;-92
2021/06/30 05:44:17;;;;;;;17.80;10.27;;;13.40;99.90;;;;;;4977736;28;20027;-91
2021/06/30 05:46:44;;;;;;;15.25;9.73;;;13.40;99.90;;;;;;4984249;28;20098;-92
2021/06/30 05:49:11;;;;;;;16.65;10.70;;;13.40;99.90;;;;;;4996287;28;20035;-91
2021/06/30 05:51:38;;;;;;;16.98;9.32;;;13.40;99.90;;;;;;4970486;28;20022;-93
2021/06/30 05:54:04;;;;;;;18.80;10.80;;;13.40;99.90;;;;;;4984638;28;20038;-93
2021/06/30 05:56:29;;;;;;;16.65;9.88;;;13.40;99.90;;;;;;4986106;28;20033;-93
2021/06/30 05:58:55;;;;;;;17.67;10.45;;;13.50;99.90;;;;;;4986526;28;20094;-93
2021/06/30 06:01:21;;;;;;;20.02;10.35;;;13.50;99.90;;;;;;4984712;28;20475;-93
2021/06/30 06:03:47;;;;;;;15.60;10.35;;;13.50;99.90;;;;;;4970917;28;20122;-94
2021/06/30 06:06:14;;;;;;;15.52;10.45;;;13.60;99.90;;;;;;4983276;28;20038;-93
2021/06/30 06:08:41;;;;;;;19.23;9.35;;;13.60;99.90;;;;;;4986159;28;20031;-94
2021/06/30 06:11:11;;;;;;;19.77;10.07;;;13.60;99.90;;;;;;4990603;28;20026;-94
2021/06/30 06:13:41;;;;;;;15.73;9.43;;;13.60;99.90;;;;;;4999604;28;20055;-93
2021/06/30 06:16:10;;;;;;;15.33;8.53;;;13.60;99.90;;;;;;4984077;28;20027;-93
2021/06/30 06:18:36;;;;;;;14.57;8.95;;;13.60;99.90;;;;;;4984840;28;20285;-93
2021/06/30 06:21:03;;;;;;;13.35;9.20;;;13.60;99.90;;;;;;4994636;28;20019;-92
2021/06/30 06:23:32;;;;;;;12.77;8.20;;;13.70;99.90;;;;;;4967110;28;20106;-93
2021/06/30 06:25:58;;;;;;;14.95;8.05;;;13.70;99.90;;;;;;4989943;28;20038;-92
2021/06/30 06:28:26;;;;;;;13.48;8.35;;;13.80;99.90;;;;;;4999186;28;21442;-93
2021/06/30 06:30:52;;;;;;;13.05;8.68;;;13.80;99.90;;;;;;4987058;28;20476;-93
2021/06/30 06:38:20;;;;;;;13.75;9.35;;;13.80;99.90;;;;;;5001927;23;20464;-94
2021/06/30 06:40:46;;;;;;;12.35;8.75;;;13.80;99.90;;;;;;4996984;28;20057;-94
2021/06/30 06:43:12;;;;;;;15.30;9.88;;;13.80;99.90;;;;;;4992451;28;20026;-95
2021/06/30 06:45:38;;;;;;;11.60;7.88;;;13.80;99.90;;;;;;4993375;28;20035;-95
2021/06/30 06:48:07;;;;;;;14.48;9.50;;;13.80;99.90;;;;;;4980778;28;20053;-94
2021/06/30 06:50:33;;;;;;;13.95;8.18;;;13.90;99.90;;;;;;4982325;28;20655;-94
2021/06/30 06:52:58;;;;;;;9.77;7.93;;;14.00;99.90;;;;;;4978073;28;20034;-94
2021/06/30 06:55:26;;;;;;;13.25;9.35;;;14.00;99.90;;;;;;4978526;28;20026;-94
2021/06/30 06:57:52;;;;;;;14.13;9.05;;;14.10;99.90;;;;;;4980213;28;20032;-95
2021/06/30 07:00:18;;;;;;;16.17;9.30;;;14.10;99.90;;;;;;4975232;28;20113;-94
2021/06/30 07:02:48;;;;;;;13.15;8.65;;;14.20;99.90;;;;;;4992080;28;20037;-94
2021/06/30 07:05:14;;;;;;;13.20;8.37;;;14.30;99.90;;;;;;4980551;28;20030;-94
2021/06/30 07:07:44;;;;;;;12.18;8.00;;;14.20;99.90;;;;;;4978423;28;20042;-95
2021/06/30 07:10:11;;;;;;;12.00;7.82;;;14.30;99.90;;;;;;4977831;28;20043;-94
2021/06/30 07:12:37;;;;;;;12.95;8.18;;;14.40;99.90;;;;;;4972251;28;20085;-94
2021/06/30 07:15:10;;;;;;;13.20;8.35;;;14.40;99.90;;;;;;4994401;28;20026;-96
2021/06/30 07:17:37;;;;;;;12.88;8.43;;;14.40;99.90;;;;;;4994238;28;20023;-93
2021/06/30 07:20:05;;;;;;;11.23;8.10;;;14.50;99.90;;;;;;4975996;28;20023;-94
2021/06/30 07:22:33;;;;;;;8.98;7.38;;;14.50;99.90;;;;;;4974808;28;20026;-93
2021/06/30 07:25:02;;;;;;;17.83;7.63;;;14.60;99.90;;;;;;4978543;28;20033;-96
2021/06/30 07:27:29;;;;;;;10.32;7.50;;;14.70;99.90;;;;;;4981785;28;20054;-94
2021/06/30 07:29:56;;;;;;;7.60;6.40;;;14.70;99.90;;;;;;4981194;28;20022;-94
2021/06/30 07:32:22;;;;;;;11.60;6.32;;;14.80;99.90;;;;;;4983468;28;20545;-95
2021/06/30 07:37:54;;;;;;;12.73;6.70;;;15.00;99.90;;;;;;4975690;28;20526;-95
2021/06/30 07:40:20;;;;;;;14.15;7.15;;;15.10;99.90;;;;;;4990411;23;20081;-93
2021/06/30 07:42:46;;;;;;;8.40;6.15;;;15.10;99.90;;;;;;4982694;28;20023;-94
2021/06/30 07:45:14;;;;;;;7.38;5.28;;;15.20;99.90;;;;;;5020563;28;20248;-93
2021/06/30 07:47:40;;;;;;;7.63;6.07;;;15.20;99.90;;;;;;5020372;28;20030;-94
2021/06/30 07:50:10;;;;;;;7.97;6.10;;;15.30;99.90;;;;;;5006048;28;20033;-93
2021/06/30 07:52:36;;;;;;;8.93;6.32;;;15.30;99.90;;;;;;5000133;28;20026;-94
2021/06/30 07:55:04;;;;;;;8.05;5.18;;;15.30;99.90;;;;;;4994933;28;20038;-94
2021/06/30 07:57:30;;;;;;;7.85;5.72;;;15.40;99.90;;;;;;4996429;28;20077;-94
2021/06/30 07:59:59;;;;;;;8.93;5.78;;;15.40;99.90;;;;;;4981751;28;20320;-94
2021/06/30 08:02:25;;;;;;;8.73;5.60;;;15.50;99.90;;;;;;4981998;28;20109;-94
2021/06/30 08:04:51;;;;;;;8.35;5.28;;;15.60;99.90;;;;;;4999633;28;20499;-94
2021/06/30 08:07:16;;;;;;;8.27;5.68;;;15.60;99.90;;;;;;4997337;28;20053;-94
2021/06/30 08:09:42;;;;;;;7.57;5.20;;;15.70;99.90;;;;;;4980361;28;20026;-94
2021/06/30 08:12:49;;;;;;;6.90;5.47;;;15.80;99.90;;;;;;5002312;28;20034;-95
2021/06/30 08:15:25;;;;;;;9.48;5.82;;;15.80;99.90;;;;;;5010275;28;20056;-96
2021/06/30 08:17:51;;;;;;;9.07;6.60;;;15.90;99.90;;;;;;4983523;28;20023;-96
2021/06/30 08:20:20;;;;;;;9.80;5.45;;;15.90;99.90;;;;;;4984737;28;20085;-96
2021/06/30 08:22:46;;;;;;;8.07;5.53;;;16.00;99.90;;;;;;4999434;28;20027;-95
2021/06/30 08:25:29;;;;;;;7.88;5.80;;;16.00;99.90;;;;;;4998754;28;20027;-94
2021/06/30 08:27:58;;;;;;;9.60;7.32;;;16.10;99.90;;;;;;5015601;28;20022;-94
2021/06/30 08:30:24;;;;;;;9.73;7.13;;;16.10;99.90;;;;;;5001207;28;20042;-95
2021/06/30 08:32:51;;;;;;;10.43;7.00;;;16.00;99.90;;;;;;5013244;28;20022;-94
2021/06/30 08:35:17;;;;;;;10.32;6.85;;;16.00;99.90;;;;;;4991860;28;20029;-93
2021/06/30 08:37:45;;;;;;;10.18;6.22;;;15.90;99.90;;;;;;4962156;28;20035;-96
2021/06/30 08:40:13;;;;;;;9.25;6.38;;;15.90;99.90;;;;;;4994283;28;20047;-94
2021/06/30 08:42:43;;;;;;;9.23;7.15;;;15.90;99.90;;;;;;4991411;28;20031;-93
2021/06/30 08:45:12;;;;;;;10.45;6.82;;;15.90;99.90;;;;;;4991408;28;20035;-94
2021/06/30 08:47:41;;;;;;;12.95;7.10;;;16.00;99.90;;;;;;4986654;28;20030;-94
2021/06/30 08:50:09;;;;;;;9.40;6.73;;;16.00;99.90;;;;;;4991092;28;20018;-93
2021/06/30 08:52:37;;;;;;;11.73;6.72;;;16.00;99.90;;;;;;5007071;28;20030;-93
2021/06/30 08:55:07;;;;;;;8.70;6.70;;;16.00;99.90;;;;;;5006466;28;20035;-93
2021/06/30 08:57:35;;;;;;;10.32;6.93;;;16.10;99.90;;;;;;5004499;28;20049;-93
2021/06/30 09:00:02;;;;;;;9.75;6.03;;;16.10;99.90;;;;;;4988709;28;20026;-95
2021/06/30 09:02:28;;;;;;;8.15;6.53;;;16.20;99.90;;;;;;4991248;28;20022;-94
2021/06/30 09:05:11;;;;;;;10.65;6.45;;;16.30;99.90;;;;;;5003000;28;20054;-94
2021/06/30 09:07:36;;;;;;;8.15;5.60;;;16.40;99.90;;;;;;5004782;28;20014;-93
2021/06/30 09:10:03;;;;;;;6.75;5.60;;;16.40;99.90;;;;;;4987848;28;20037;-94
2021/06/30 09:12:39;;;;;;;8.95;6.18;;;16.40;99.90;;;;;;5005109;28;20039;-94
2021/06/30 09:15:17;;;;;;;6.18;5.57;;;16.30;99.70;;;;;;5004200;28;20061;-95
2021/06/30 09:17:46;;;;;;;7.53;5.57;;;16.30;99.70;;;;;;4986622;28;20030;-94
2021/06/30 09:20:15;;;;;;;10.27;5.68;;;16.30;99.60;;;;;;4986703;28;20019;-96
2021/06/30 09:22:44;;;;;;;9.85;6.15;;;16.40;99.60;;;;;;4985482;28;20475;-94
2021/06/30 09:25:26;;;;;;;6.13;5.10;;;16.40;99.60;;;;;;4990076;28;20488;-96
2021/06/30 09:27:53;;;;;;;9.20;6.05;;;16.40;99.40;;;;;;4998238;28;20027;-95
2021/06/30 09:30:20;;;;;;;9.35;6.13;;;16.50;99.30;;;;;;4987850;28;20057;-92
2021/06/30 09:33:15;;;;;;;9.45;6.43;;;16.50;99.10;;;;;;4988836;28;20046;-94
2021/06/30 09:35:40;;;;;;;7.38;6.13;;;16.50;98.90;;;;;;4983174;28;20122;-94
2021/06/30 09:38:32;;;;;;;9.50;6.47;;;16.50;98.70;;;;;;5008131;28;20069;-92
2021/06/30 09:40:59;;;;;;;9.27;6.15;;;16.50;98.60;;;;;;4969209;28;20038;-93
2021/06/30 09:43:35;;;;;;;10.43;6.10;;;16.40;98.50;;;;;;4968216;28;20047;-93
2021/06/30 09:46:17;;;;;;;9.38;5.95;;;16.50;98.80;;;;;;4968943;28;20023;-93
2021/06/30 09:48:44;;;;;;;8.02;5.60;;;16.60;98.50;;;;;;4977772;28;20042;-95
2021/06/30 09:51:20;;;;;;;7.18;5.22;;;16.80;98.40;;;;;;4980998;28;20019;-93
2021/06/30 09:53:46;;;;;;;7.57;5.40;;;17.00;97.70;;;;;;5002171;28;20097;-93
2021/06/30 09:56:38;;;;;;;7.82;4.95;;;17.10;97.40;;;;;;4976401;28;20026;-94
2021/06/30 09:59:21;;;;;;;6.15;5.15;;;17.20;97.10;;;;;;4993157;28;20041;-93
2021/06/30 10:02:23;;;;;;;6.00;4.70;;;17.30;96.60;;;;;;4973108;28;20099;-91
2021/06/30 10:05:01;;;;;;;7.20;5.45;;;17.40;96.40;;;;;;4971554;28;20062;-92
2021/06/30 10:07:29;;;;;;;8.82;5.68;;;17.60;96.30;;;;;;4971602;28;20030;-94
2021/06/30 10:10:08;;;;;;;8.02;4.80;;;17.70;96.00;;;;;;4982263;28;20034;-95
2021/06/30 10:12:36;;;;;;;8.00;5.22;;;17.80;95.60;;;;;;4973773;28;20045;-96
2021/06/30 10:15:04;;;;;;;8.25;5.28;;;17.90;95.30;;;;;;4984439;28;20018;-95
2021/06/30 10:17:30;;;;;;;6.22;4.90;;;17.90;95.00;;;;;;4965792;28;20466;-95
2021/06/30 10:19:58;;;;;;;5.93;5.10;;;18.00;94.70;;;;;;4979978;28;20098;-95
2021/06/30 10:22:27;;;;;;;5.50;4.45;;;18.10;94.30;;;;;;4979432;28;20023;-93
2021/06/30 10:24:54;;;;;;;6.90;5.28;;;18.10;94.00;;;;;;4980525;28;20038;-94
2021/06/30 10:27:23;;;;;;;7.25;5.18;;;18.30;93.80;;;;;;4979452;28;20098;-95
2021/06/30 10:29:56;;;;;;;7.10;4.95;;;18.50;93.50;;;;;;4975359;28;20102;-94
2021/06/30 10:32:23;;;;;;;7.03;4.70;;;18.70;93.10;;;;;;4983629;28;20027;-95
2021/06/30 10:34:58;;;;;;;6.43;4.97;;;19.00;92.40;;;;;;4968956;28;20074;-95
2021/06/30 10:37:35;;;;;;;6.28;4.60;;;19.10;91.80;;;;;;4990604;28;20023;-96
2021/06/30 10:40:11;;;;;;;5.68;4.65;;;19.40;91.30;;;;;;4988482;28;20058;-95
2021/06/30 10:42:50;;;;;;;7.10;4.70;;;19.60;90.50;;;;;;5003620;28;20512;-95
2021/06/30 10:45:24;;;;;;;5.07;4.53;;;19.70;89.80;;;;;;4989126;28;20381;-96
2021/06/30 10:47:55;;;;;;;4.90;4.25;;;19.80;89.00;;;;;;5008281;28;20031;-96
2021/06/30 10:50:38;;;;;;;6.50;4.68;;;19.90;88.50;;;;;;5009947;28;20026;-96
2021/06/30 10:53:25;;;;;;;6.53;4.63;;;20.00;87.50;;;;;;4999091;28;20042;-95
2021/06/30 10:55:52;;;;;;;5.70;4.95;;;20.30;87.50;;;;;;4992898;28;20017;-95
2021/06/30 10:58:22;;;;;;;6.43;4.15;;;20.50;85.70;;;;;;5006873;28;20026;-95
2021/06/30 11:00:54;;;;;;;9.80;5.05;;;20.70;84.80;;;;;;5007956;28;20022;-93
2021/06/30 11:03:54;;;;;;;6.68;4.80;;;21.00;83.40;;;;;;4990054;28;20031;-94
2021/06/30 11:06:24;;;;;;;7.20;4.40;;;21.30;82.60;;;;;;4990678;28;20033;-96
2021/06/30 11:08:50;;;;;;;5.68;4.50;;;21.40;81.70;;;;;;4993655;28;20542;-95
2021/06/30 11:11:37;;;;;;;6.75;4.68;;;21.50;80.80;;;;;;4983995;28;20076;-95
2021/06/30 11:14:18;;;;;;;6.65;4.60;;;21.50;79.90;;;;;;4994758;28;20092;-94
2021/06/30 11:16:54;;;;;;;6.15;4.70;;;21.70;79.10;;;;;;4994935;28;20026;-95
2021/06/30 11:19:19;;;;;;;9.40;4.82;;;22.00;78.10;;;;;;4982723;28;20086;-93
2021/06/30 11:21:57;;;;;;;5.72;4.38;;;22.20;77.50;;;;;;4979797;28;20061;-93
2021/06/30 11:24:46;;;;;;;5.97;4.95;;;22.30;76.50;;;;;;4979989;28;20026;-91
2021/06/30 11:30:19;;;;;;;5.38;4.45;;;22.50;75.10;;;;;;4995478;28;20034;-90
2021/06/30 11:32:46;;;;;;;4.53;4.07;;;22.50;74.60;;;;;;4961889;28;20034;-91
2021/06/30 11:35:16;;;;;;;6.25;4.63;;;22.50;74.30;;;;;;4995868;28;20029;-90
2021/06/30 11:37:47;;;;;;;7.35;4.72;;;22.50;73.80;;;;;;4995672;28;20077;-89
2021/06/30 11:40:37;;;;;;;6.50;4.75;;;22.40;73.70;;;;;;4995718;28;20054;-91
2021/06/30 11:43:20;;;;;;;5.88;4.25;;;22.30;73.50;;;;;;4995861;28;20019;-90
2021/06/30 11:45:46;;;;;;;4.50;4.05;;;22.20;73.50;;;;;;4995429;28;20170;-91
2021/06/30 11:48:14;;;;;;;4.97;4.03;;;22.10;73.60;;;;;;4979117;28;20421;-90
2021/06/30 11:50:46;;;;;;;5.50;3.40;;;22.00;73.60;;;;;;4995930;28;20550;-91
2021/06/30 11:53:12;;;;;;;4.50;3.88;;;21.90;73.40;;;;;;4991876;28;20042;-92
2021/06/30 11:55:40;;;;;;;3.90;3.50;;;22.00;73.60;;;;;;4992667;28;20035;-94
2021/06/30 11:58:06;;;;;;;4.63;3.95;;;22.00;73.40;;;;;;4994017;28;20070;-92
2021/06/30 12:00:34;;;;;;;4.70;3.83;;;22.10;73.10;;;;;;4996528;28;20026;-92
2021/06/30 12:03:03;;;;;;;5.20;3.67;;;22.20;72.90;;;;;;4984899;28;20030;-91
2021/06/30 12:05:31;;;;;;;5.65;3.33;;;22.30;72.80;;;;;;4980317;28;20031;-93
2021/06/30 12:07:58;;;;;;;4.05;3.10;;;22.30;72.50;;;;;;4992876;28;20042;-92
2021/06/30 12:10:26;;;;;;;4.30;3.72;;;22.30;72.60;;;;;;4988224;28;20029;-91
2021/06/30 12:12:52;;;;;;;4.15;3.63;;;22.40;72.60;;;;;;4999698;28;20039;-93
2021/06/30 12:15:19;;;;;;;4.18;3.17;;;22.30;72.10;;;;;;5000590;28;20030;-93
2021/06/30 12:17:54;;;;;;;4.60;2.95;;;22.20;72.00;;;;;;4977263;28;20030;-94
2021/06/30 12:20:23;;;;;;;5.68;3.35;;;22.10;72.30;;;;;;4984100;28;20112;-94
2021/06/30 12:22:49;;;;;;;5.13;3.38;;;22.20;72.40;;;;;;4981300;28;20030;-92
2021/06/30 12:25:18;;;;;;;3.42;3.13;;;22.40;72.10;;;;;;4996952;28;20072;-92
2021/06/30 12:27:47;;;;;;;5.15;3.45;;;22.50;71.70;;;;;;4980302;28;20022;-93
2021/06/30 12:30:14;;;;;;;3.50;3.20;;;22.60;71.50;;;;;;4997255;28;20030;-92
2021/06/30 12:32:45;;;;;;;3.25;2.63;;;22.60;71.00;;;;;;4997685;28;20026;-93
2021/06/30 12:35:13;;;;;;;3.97;3.35;;;22.60;70.80;;;;;;5000723;28;20034;-94
2021/06/30 12:37:40;;;;;;;4.20;3.15;;;22.40;70.90;;;;;;4988887;28;20045;-92
2021/06/30 12:40:14;;;;;;;2.53;2.33;;;22.20;71.10;;;;;;4994559;28;20109;-92
2021/06/30 12:42:56;;;;;;;3.20;2.90;;;22.10;71.50;;;;;;4981204;28;20085;-95
2021/06/30 12:45:36;;;;;;;3.85;2.58;;;22.10;71.60;;;;;;4989605;28;20094;-95
2021/06/30 12:48:06;;;;;;;3.42;3.13;;;22.00;71.70;;;;;;4988691;28;20023;-94
2021/06/30 12:50:37;;;;;;;4.43;2.70;;;21.90;71.80;;;;;;4991250;28;20030;-94
2021/06/30 12:53:07;;;;;;;;;;;21.80;71.80;;;;;;5010739;28;20031;-94
2021/06/30 12:55:58;;;;;;;4.10;3.20;;;21.70;72.10;;;;;;4993679;28;19910;-94